createdAt,value
2023-02-11T00:00:47.945Z,1023.74
2023-02-11T00:01:47.760Z,1023.75
2023-02-11T00:02:48.096Z,1023.74
2023-02-11T00:03:47.742Z,1023.70
2023-02-11T00:04:47.722Z,1023.71
2023-02-11T00:05:47.817Z,1023.77
2023-02-11T00:06:47.738Z,1023.75
2023-02-11T00:07:47.749Z,1023.67
2023-02-11T00:08:47.755Z,1023.71
2023-02-11T00:09:47.762Z,1023.69
2023-02-11T00:10:48.027Z,1023.74
2023-02-11T00:11:47.797Z,1023.74
2023-02-11T00:12:47.790Z,1023.75
2023-02-11T00:13:47.797Z,1023.80
2023-02-11T00:14:47.813Z,1023.85
2023-02-11T00:15:48.056Z,1023.84
2023-02-11T00:16:47.916Z,1023.88
2023-02-11T00:17:47.845Z,1023.88
2023-02-11T00:18:47.855Z,1023.96
2023-02-11T00:19:47.853Z,1023.95
2023-02-11T00:20:47.865Z,1023.96
2023-02-11T00:21:47.896Z,1024.01
2023-02-11T00:22:47.871Z,1024.01
2023-02-11T00:23:47.884Z,1024.09
2023-02-11T00:24:47.893Z,1024.12
2023-02-11T00:25:47.967Z,1024.10
2023-02-11T00:26:47.904Z,1024.13
2023-02-11T00:27:47.912Z,1024.06
2023-02-11T00:28:47.919Z,1023.98
2023-02-11T00:29:47.926Z,1023.98
2023-02-11T00:30:47.995Z,1023.90
2023-02-11T00:31:48.087Z,1023.84
2023-02-11T00:32:47.951Z,1023.83
2023-02-11T00:33:47.957Z,1023.79
2023-02-11T00:34:47.974Z,1023.74
2023-02-11T00:35:48.176Z,1023.66
2023-02-11T00:36:47.981Z,1023.63
2023-02-11T00:37:47.990Z,1023.68
2023-02-11T00:38:47.999Z,1023.68
2023-02-11T00:39:48.004Z,1023.65
2023-02-11T00:40:48.014Z,1023.65
2023-02-11T00:41:48.022Z,1023.60
2023-02-11T00:42:48.033Z,1023.64
2023-02-11T00:43:48.045Z,1023.58
2023-02-11T00:44:48.045Z,1023.61
2023-02-11T00:45:48.247Z,1023.60
2023-02-11T00:46:48.063Z,1023.67
2023-02-11T00:47:48.073Z,1023.68
2023-02-11T00:48:48.080Z,1023.75
2023-02-11T00:49:48.095Z,1023.77
2023-02-11T00:50:48.098Z,1023.86
2023-02-11T00:51:48.105Z,1023.90
2023-02-11T00:52:48.114Z,1023.94
2023-02-11T00:53:48.125Z,1023.95
2023-02-11T00:54:48.146Z,1023.91
2023-02-11T00:55:48.462Z,1023.89
2023-02-11T00:56:48.148Z,1023.91
2023-02-11T00:57:48.160Z,1023.93
2023-02-11T00:58:48.169Z,1023.93
2023-02-11T00:59:48.178Z,1023.85
2023-02-11T01:00:48.185Z,1023.83
2023-02-11T01:01:48.278Z,1023.81
2023-02-11T01:02:48.201Z,1023.79
2023-02-11T01:03:48.218Z,1023.74
2023-02-11T01:04:48.321Z,1023.75
2023-02-11T01:05:48.434Z,1023.69
2023-02-11T01:06:48.258Z,1023.66
2023-02-11T01:07:48.258Z,1023.61
2023-02-11T01:08:48.256Z,1023.65
2023-02-11T01:09:48.273Z,1023.65
2023-02-11T01:10:48.279Z,1023.58
2023-02-11T01:11:48.295Z,1023.58
2023-02-11T01:12:48.291Z,1023.59
2023-02-11T01:13:48.306Z,1023.52
2023-02-11T01:14:48.312Z,1023.52
2023-02-11T01:15:48.451Z,1023.50
2023-02-11T01:16:48.327Z,1023.51
2023-02-11T01:17:48.338Z,1023.48
2023-02-11T01:18:48.366Z,1023.45
2023-02-11T01:19:48.354Z,1023.38
2023-02-11T01:20:48.362Z,1023.35
2023-02-11T01:21:48.373Z,1023.34
2023-02-11T01:22:48.383Z,1023.26
2023-02-11T01:23:48.402Z,1023.21
2023-02-11T01:24:48.400Z,1023.16
2023-02-11T01:25:48.667Z,1023.12
2023-02-11T01:26:48.422Z,1023.13
2023-02-11T01:27:48.440Z,1023.14
2023-02-11T01:28:48.443Z,1023.15
2023-02-11T01:29:48.447Z,1023.20
2023-02-11T01:30:48.527Z,1023.14
2023-02-11T01:31:48.497Z,1023.15
2023-02-11T01:32:48.482Z,1023.16
2023-02-11T01:33:48.480Z,1023.14
2023-02-11T01:34:48.490Z,1023.14
2023-02-11T01:35:48.893Z,1023.04
2023-02-11T01:36:48.507Z,1023.05
2023-02-11T01:37:48.518Z,1023.08
2023-02-11T01:38:48.526Z,1023.10
2023-02-11T01:39:48.534Z,1023.10
2023-02-11T01:40:48.543Z,1023.11
2023-02-11T01:41:48.552Z,1023.10
2023-02-11T01:42:50.902Z,1022.98
2023-02-11T01:43:48.568Z,1023.03
2023-02-11T01:44:48.580Z,1023.02
2023-02-11T01:45:48.899Z,1023.00
2023-02-11T01:46:48.618Z,1022.96
2023-02-11T01:47:48.605Z,1022.96
2023-02-11T01:48:48.683Z,1022.93
2023-02-11T01:49:48.628Z,1022.90
2023-02-11T01:50:48.635Z,1022.88
2023-02-11T01:51:48.647Z,1022.82
2023-02-11T01:52:48.654Z,1022.82
2023-02-11T01:53:48.663Z,1022.85
2023-02-11T01:54:48.672Z,1022.77
2023-02-11T01:55:48.922Z,1022.76
2023-02-11T01:56:48.691Z,1022.74
2023-02-11T01:57:48.706Z,1022.69
2023-02-11T01:58:48.704Z,1022.66
2023-02-11T01:59:48.714Z,1022.71
2023-02-11T02:00:48.725Z,1022.67
2023-02-11T02:01:48.791Z,1022.76
2023-02-11T02:02:48.740Z,1022.74
2023-02-11T02:03:48.798Z,1022.74
2023-02-11T02:04:48.761Z,1022.69
2023-02-11T02:05:48.986Z,1022.66
2023-02-11T02:06:48.780Z,1022.67
2023-02-11T02:07:48.792Z,1022.64
2023-02-11T02:08:48.801Z,1022.63
2023-02-11T02:09:48.805Z,1022.67
2023-02-11T02:10:48.821Z,1022.62
2023-02-11T02:11:48.826Z,1022.64
2023-02-11T02:12:48.830Z,1022.62
2023-02-11T02:13:48.843Z,1022.54
2023-02-11T02:14:48.850Z,1022.51
2023-02-11T02:15:49.312Z,1022.53
2023-02-11T02:16:48.867Z,1022.53
2023-02-11T02:17:48.876Z,1022.52
2023-02-11T02:18:48.932Z,1022.56
2023-02-11T02:19:48.893Z,1022.54
2023-02-11T02:20:48.906Z,1022.59
2023-02-11T02:21:48.919Z,1022.62
2023-02-11T02:22:48.922Z,1022.64
2023-02-11T02:23:48.930Z,1022.65
2023-02-11T02:24:48.942Z,1022.62
2023-02-11T02:25:49.211Z,1022.59
2023-02-11T02:26:48.964Z,1022.56
2023-02-11T02:27:48.965Z,1022.52
2023-02-11T02:28:48.974Z,1022.53
2023-02-11T02:29:48.984Z,1022.52
2023-02-11T02:30:49.029Z,1022.50
2023-02-11T02:31:49.057Z,1022.57
2023-02-11T02:32:49.012Z,1022.56
2023-02-11T02:33:49.023Z,1022.58
2023-02-11T02:34:49.048Z,1022.60
2023-02-11T02:35:49.290Z,1022.63
2023-02-11T02:36:49.051Z,1022.64
2023-02-11T02:37:49.059Z,1022.61
2023-02-11T02:38:49.068Z,1022.59
2023-02-11T02:39:49.079Z,1022.62
2023-02-11T02:40:49.088Z,1022.65
2023-02-11T02:41:49.103Z,1022.61
2023-02-11T02:42:49.108Z,1022.59
2023-02-11T02:43:49.119Z,1022.52
2023-02-11T02:44:49.126Z,1022.48
2023-02-11T02:45:49.377Z,1022.39
2023-02-11T02:46:49.198Z,1022.41
2023-02-11T02:47:49.154Z,1022.34
2023-02-11T02:48:49.163Z,1022.32
2023-02-11T02:49:49.178Z,1022.32
2023-02-11T02:50:49.186Z,1022.29
2023-02-11T02:51:49.193Z,1022.30
2023-02-11T02:52:49.200Z,1022.23
2023-02-11T02:53:49.213Z,1022.22
2023-02-11T02:54:49.222Z,1022.17
2023-02-11T02:55:49.428Z,1022.15
2023-02-11T02:56:49.242Z,1022.16
2023-02-11T02:57:49.256Z,1022.18
2023-02-11T02:58:49.264Z,1022.17
2023-02-11T02:59:49.269Z,1022.26
2023-02-11T03:00:49.361Z,1022.25
2023-02-11T03:01:49.292Z,1022.35
2023-02-11T03:02:49.300Z,1022.30
2023-02-11T03:03:49.391Z,1022.28
2023-02-11T03:04:49.322Z,1022.25
2023-02-11T03:05:49.667Z,1022.24
2023-02-11T03:06:49.345Z,1022.19
2023-02-11T03:07:49.348Z,1022.12
2023-02-11T03:08:49.361Z,1022.12
2023-02-11T03:09:49.367Z,1022.13
2023-02-11T03:10:49.389Z,1022.10
2023-02-11T03:11:49.386Z,1022.08
2023-02-11T03:12:49.398Z,1022.05
2023-02-11T03:13:49.406Z,1022.08
2023-02-11T03:14:49.416Z,1022.05
2023-02-11T03:15:49.697Z,1022.09
2023-02-11T03:16:49.441Z,1022.09
2023-02-11T03:17:49.445Z,1022.05
2023-02-11T03:18:49.454Z,1022.07
2023-02-11T03:19:49.466Z,1022.05
2023-02-11T03:20:49.474Z,1022.05
2023-02-11T03:21:49.490Z,1022.07
2023-02-11T03:22:49.509Z,1022.02
2023-02-11T03:23:49.510Z,1021.97
2023-02-11T03:24:49.521Z,1022.00
2023-02-11T03:25:49.816Z,1022.01
2023-02-11T03:26:49.558Z,1022.06
2023-02-11T03:27:49.547Z,1022.08
2023-02-11T03:28:49.552Z,1022.12
2023-02-11T03:29:49.562Z,1022.10
2023-02-11T03:30:49.619Z,1022.09
2023-02-11T03:31:49.639Z,1022.13
2023-02-11T03:32:49.594Z,1022.16
2023-02-11T03:33:49.603Z,1022.12
2023-02-11T03:34:49.620Z,1022.14
2023-02-11T03:35:49.862Z,1022.14
2023-02-11T03:36:49.632Z,1022.14
2023-02-11T03:37:49.646Z,1022.12
2023-02-11T03:38:49.670Z,1022.15
2023-02-11T03:39:49.674Z,1022.19
2023-02-11T03:40:49.680Z,1022.20
2023-02-11T03:41:49.683Z,1022.27
2023-02-11T03:42:49.704Z,1022.15
2023-02-11T03:43:49.708Z,1022.17
2023-02-11T03:44:49.714Z,1022.15
2023-02-11T03:45:50.065Z,1022.18
2023-02-11T03:46:49.733Z,1022.17
2023-02-11T03:47:49.743Z,1022.23
2023-02-11T03:48:49.751Z,1022.15
2023-02-11T03:49:49.789Z,1022.10
2023-02-11T03:50:49.770Z,1022.10
2023-02-11T03:51:49.784Z,1022.04
2023-02-11T03:52:49.790Z,1022.01
2023-02-11T03:53:49.799Z,1022.04
2023-02-11T03:54:49.813Z,1022.11
2023-02-11T03:55:50.040Z,1022.08
2023-02-11T03:56:49.832Z,1022.09
2023-02-11T03:57:49.862Z,1022.14
2023-02-11T03:58:49.868Z,1022.13
2023-02-11T03:59:49.859Z,1022.18
2023-02-11T04:00:49.912Z,1022.13
2023-02-11T04:01:49.879Z,1022.21
2023-02-11T04:02:49.902Z,1022.21
2023-02-11T04:03:49.897Z,1022.17
2023-02-11T04:04:49.907Z,1022.15
2023-02-11T04:05:50.171Z,1022.13
2023-02-11T04:06:49.936Z,1022.12
2023-02-11T04:07:49.937Z,1022.15
2023-02-11T04:08:49.949Z,1022.15
2023-02-11T04:09:49.958Z,1022.10
2023-02-11T04:10:49.969Z,1022.10
2023-02-11T04:11:49.979Z,1022.06
2023-02-11T04:12:49.987Z,1022.03
2023-02-11T04:13:49.997Z,1022.02
2023-02-11T04:14:50.011Z,1021.96
2023-02-11T04:15:50.482Z,1021.98
2023-02-11T04:16:50.026Z,1022.06
2023-02-11T04:17:50.037Z,1022.04
2023-02-11T04:18:50.046Z,1022.05
2023-02-11T04:19:50.062Z,1022.13
2023-02-11T04:20:50.065Z,1022.07
2023-02-11T04:21:50.076Z,1022.14
2023-02-11T04:22:50.085Z,1022.04
2023-02-11T04:23:50.099Z,1022.07
2023-02-11T04:24:50.106Z,1022.03
2023-02-11T04:25:50.400Z,1022.08
2023-02-11T04:26:50.125Z,1022.05
2023-02-11T04:27:50.142Z,1022.12
2023-02-11T04:28:50.145Z,1022.09
2023-02-11T04:29:50.162Z,1022.10
2023-02-11T04:30:50.204Z,1022.14
2023-02-11T04:31:50.193Z,1022.05
2023-02-11T04:32:50.186Z,1022.04
2023-02-11T04:33:50.197Z,1022.04
2023-02-11T04:34:50.213Z,1022.06
2023-02-11T04:35:50.436Z,1022.03
2023-02-11T04:36:50.226Z,1021.98
2023-02-11T04:37:50.238Z,1021.96
2023-02-11T04:38:50.261Z,1021.96
2023-02-11T04:39:50.258Z,1021.96
2023-02-11T04:40:50.269Z,1021.98
2023-02-11T04:41:50.277Z,1021.98
2023-02-11T04:42:50.287Z,1021.95
2023-02-11T04:43:50.296Z,1021.97
2023-02-11T04:44:50.306Z,1021.98
2023-02-11T04:45:50.608Z,1021.95
2023-02-11T04:46:50.327Z,1022.03
2023-02-11T04:47:50.337Z,1021.93
2023-02-11T04:48:50.346Z,1021.88
2023-02-11T04:49:50.389Z,1021.87
2023-02-11T04:50:50.383Z,1021.92
2023-02-11T04:51:50.375Z,1021.90
2023-02-11T04:52:50.391Z,1021.86
2023-02-11T04:53:50.402Z,1021.83
2023-02-11T04:54:50.414Z,1021.82
2023-02-11T04:55:50.647Z,1021.82
2023-02-11T04:56:50.431Z,1021.82
2023-02-11T04:57:50.437Z,1021.83
2023-02-11T04:58:50.454Z,1021.81
2023-02-11T04:59:50.458Z,1021.78
2023-02-11T05:00:50.548Z,1021.78
2023-02-11T05:01:50.476Z,1021.76
2023-02-11T05:02:50.488Z,1021.75
2023-02-11T05:03:50.542Z,1021.78
2023-02-11T05:04:50.508Z,1021.74
2023-02-11T05:05:50.707Z,1021.71
2023-02-11T05:06:50.527Z,1021.77
2023-02-11T05:07:50.539Z,1021.71
2023-02-11T05:08:50.544Z,1021.68
2023-02-11T05:09:50.564Z,1021.69
2023-02-11T05:10:50.563Z,1021.68
2023-02-11T05:11:50.578Z,1021.63
2023-02-11T05:12:50.585Z,1021.61
2023-02-11T05:13:50.603Z,1021.59
2023-02-11T05:14:50.604Z,1021.58
2023-02-11T05:15:50.852Z,1021.57
2023-02-11T05:16:50.685Z,1021.59
2023-02-11T05:17:50.633Z,1021.58
2023-02-11T05:18:52.519Z,1021.56
2023-02-11T05:19:50.653Z,1021.56
2023-02-11T05:20:50.663Z,1021.47
2023-02-11T05:22:01.696Z,1021.47
2023-02-11T05:22:50.688Z,1021.44
2023-02-11T05:23:50.700Z,1021.42
2023-02-11T05:24:50.704Z,1021.42
2023-02-11T05:25:50.984Z,1021.41
2023-02-11T05:26:50.729Z,1021.37
2023-02-11T05:27:50.735Z,1021.35
2023-02-11T05:28:50.744Z,1021.27
2023-02-11T05:29:50.757Z,1021.31
2023-02-11T05:30:50.811Z,1021.32
2023-02-11T05:31:50.780Z,1021.31
2023-02-11T05:32:50.784Z,1021.28
2023-02-11T05:33:50.792Z,1021.26
2023-02-11T05:34:50.813Z,1021.33
2023-02-11T05:35:50.988Z,1021.28
2023-02-11T05:36:50.822Z,1021.32
2023-02-11T05:37:50.834Z,1021.28
2023-02-11T05:38:50.843Z,1021.26
2023-02-11T05:39:50.853Z,1021.25
2023-02-11T05:40:50.865Z,1021.18
2023-02-11T05:41:50.878Z,1021.22
2023-02-11T05:42:50.882Z,1021.16
2023-02-11T05:43:50.897Z,1021.20
2023-02-11T05:44:50.899Z,1021.21
2023-02-11T05:45:51.239Z,1021.16
2023-02-11T05:46:50.925Z,1021.15
2023-02-11T05:47:50.944Z,1021.06
2023-02-11T05:48:50.941Z,1021.05
2023-02-11T05:49:50.953Z,1021.04
2023-02-11T05:50:50.963Z,1021.00
2023-02-11T05:51:50.971Z,1021.07
2023-02-11T05:52:50.983Z,1021.04
2023-02-11T05:53:50.997Z,1020.97
2023-02-11T05:54:51.003Z,1020.94
2023-02-11T05:55:51.280Z,1021.00
2023-02-11T05:56:51.036Z,1021.06
2023-02-11T05:57:51.033Z,1021.10
2023-02-11T05:58:51.043Z,1021.07
2023-02-11T05:59:51.055Z,1021.07
2023-02-11T06:00:51.072Z,1021.10
2023-02-11T06:01:51.073Z,1021.12
2023-02-11T06:02:51.104Z,1021.13
2023-02-11T06:03:51.115Z,1021.14
2023-02-11T06:04:51.107Z,1021.14
2023-02-11T06:05:51.305Z,1021.21
2023-02-11T06:06:51.124Z,1021.14
2023-02-11T06:07:51.135Z,1021.14
2023-02-11T06:08:51.141Z,1021.14
2023-02-11T06:09:51.156Z,1021.11
2023-02-11T06:10:51.164Z,1021.16
2023-02-11T06:11:51.172Z,1021.19
2023-02-11T06:12:51.188Z,1021.20
2023-02-11T06:13:51.195Z,1021.29
2023-02-11T06:14:51.203Z,1021.32
2023-02-11T06:15:51.641Z,1021.29
2023-02-11T06:16:51.222Z,1021.34
2023-02-11T06:17:51.235Z,1021.34
2023-02-11T06:18:51.250Z,1021.31
2023-02-11T06:19:51.252Z,1021.32
2023-02-11T06:20:51.262Z,1021.23
2023-02-11T06:21:51.276Z,1021.25
2023-02-11T06:22:51.284Z,1021.26
2023-02-11T06:23:51.294Z,1021.20
2023-02-11T06:25:01.256Z,1021.25
2023-02-11T06:25:51.585Z,1021.29
2023-02-11T06:26:51.324Z,1021.30
2023-02-11T06:27:51.334Z,1021.25
2023-02-11T06:28:51.344Z,1021.25
2023-02-11T06:29:51.353Z,1021.29
2023-02-11T06:30:51.529Z,1021.31
2023-02-11T06:31:51.444Z,1021.20
2023-02-11T06:32:51.490Z,1021.23
2023-02-11T06:33:51.395Z,1021.20
2023-02-11T06:34:51.406Z,1021.18
2023-02-11T06:35:51.693Z,1021.16
2023-02-11T06:36:51.427Z,1021.18
2023-02-11T06:37:51.436Z,1021.12
2023-02-11T06:38:51.447Z,1021.11
2023-02-11T06:39:51.456Z,1021.15
2023-02-11T06:40:51.467Z,1021.11
2023-02-11T06:41:51.486Z,1021.14
2023-02-11T06:42:51.488Z,1021.09
2023-02-11T06:43:51.496Z,1021.12
2023-02-11T06:44:51.507Z,1021.12
2023-02-11T06:45:51.786Z,1021.12
2023-02-11T06:46:51.574Z,1021.09
2023-02-11T06:47:51.552Z,1021.08
2023-02-11T06:48:51.553Z,1021.03
2023-02-11T06:49:51.565Z,1021.00
2023-02-11T06:50:51.585Z,1021.00
2023-02-11T06:51:51.578Z,1021.05
2023-02-11T06:52:51.600Z,1021.02
2023-02-11T06:53:51.610Z,1021.08
2023-02-11T06:54:51.631Z,1021.06
2023-02-11T06:55:51.912Z,1021.07
2023-02-11T06:56:51.630Z,1021.08
2023-02-11T06:57:51.639Z,1021.04
2023-02-11T06:58:51.650Z,1021.13
2023-02-11T06:59:51.664Z,1021.16
2023-02-11T07:00:51.672Z,1021.16
2023-02-11T07:01:51.765Z,1021.26
2023-02-11T07:02:51.717Z,1021.25
2023-02-11T07:03:51.701Z,1021.17
2023-02-11T07:04:51.711Z,1021.21
2023-02-11T07:05:51.977Z,1021.14
2023-02-11T07:06:51.759Z,1021.16
2023-02-11T07:07:51.768Z,1021.22
2023-02-11T07:08:51.752Z,1021.13
2023-02-11T07:09:51.764Z,1021.11
2023-02-11T07:10:51.771Z,1021.15
2023-02-11T07:11:51.784Z,1021.13
2023-02-11T07:12:51.791Z,1021.11
2023-02-11T07:13:51.804Z,1021.09
2023-02-11T07:14:51.814Z,1021.05
2023-02-11T07:15:52.183Z,1021.11
2023-02-11T07:16:51.837Z,1021.09
2023-02-11T07:17:51.842Z,1021.09
2023-02-11T07:18:51.858Z,1021.04
2023-02-11T07:19:51.866Z,1021.03
2023-02-11T07:20:51.879Z,1021.05
2023-02-11T07:21:51.882Z,1021.01
2023-02-11T07:22:51.910Z,1020.96
2023-02-11T07:23:51.905Z,1020.97
2023-02-11T07:24:51.917Z,1020.93
2023-02-11T07:25:52.068Z,1020.90
2023-02-11T07:26:51.934Z,1020.92
2023-02-11T07:27:51.945Z,1021.01
2023-02-11T07:28:51.959Z,1021.01
2023-02-11T07:29:51.967Z,1021.03
2023-02-11T07:30:52.035Z,1021.03
2023-02-11T07:31:52.012Z,1020.99
2023-02-11T07:32:52.001Z,1021.01
2023-02-11T07:33:52.009Z,1020.99
2023-02-11T07:34:52.036Z,1020.96
2023-02-11T07:35:52.257Z,1020.97
2023-02-11T07:36:52.046Z,1020.95
2023-02-11T07:37:52.048Z,1020.95
2023-02-11T07:38:52.079Z,1020.94
2023-02-11T07:39:52.072Z,1021.03
2023-02-11T07:40:52.080Z,1020.97
2023-02-11T07:41:52.089Z,1020.92
2023-02-11T07:42:52.100Z,1020.91
2023-02-11T07:43:52.119Z,1020.89
2023-02-11T07:44:52.121Z,1020.87
2023-02-11T07:45:52.341Z,1020.94
2023-02-11T07:46:52.190Z,1020.85
2023-02-11T07:47:52.158Z,1020.93
2023-02-11T07:48:52.166Z,1020.97
2023-02-11T07:49:53.956Z,1020.98
2023-02-11T07:50:52.196Z,1021.04
2023-02-11T07:51:52.204Z,1020.98
2023-02-11T07:52:52.209Z,1020.95
2023-02-11T07:53:52.250Z,1020.95
2023-02-11T07:54:52.235Z,1020.94
2023-02-11T07:55:52.414Z,1020.96
2023-02-11T07:56:52.250Z,1020.96
2023-02-11T07:57:52.322Z,1020.95
2023-02-11T07:58:52.272Z,1020.88
2023-02-11T07:59:52.288Z,1020.85
2023-02-11T08:00:52.360Z,1020.94
2023-02-11T08:01:52.330Z,1020.98
2023-02-11T08:02:52.319Z,1021.02
2023-02-11T08:03:52.325Z,1020.99
2023-02-11T08:04:52.337Z,1021.05
2023-02-11T08:05:52.531Z,1020.95
2023-02-11T08:06:52.359Z,1020.95
2023-02-11T08:07:52.374Z,1020.94
2023-02-11T08:08:52.378Z,1020.84
2023-02-11T08:09:52.392Z,1020.88
2023-02-11T08:10:52.549Z,1020.88
2023-02-11T08:11:52.413Z,1020.87
2023-02-11T08:12:52.420Z,1020.83
2023-02-11T08:13:52.455Z,1020.85
2023-02-11T08:14:52.445Z,1020.92
2023-02-11T08:15:52.589Z,1020.97
2023-02-11T08:16:52.505Z,1020.92
2023-02-11T08:17:52.505Z,1021.00
2023-02-11T08:18:52.491Z,1021.00
2023-02-11T08:19:52.499Z,1021.05
2023-02-11T08:20:52.813Z,1021.12
2023-02-11T08:21:52.520Z,1021.21
2023-02-11T08:22:52.529Z,1021.25
2023-02-11T08:23:52.548Z,1021.31
2023-02-11T08:24:52.602Z,1021.36
2023-02-11T08:25:52.561Z,1021.43
2023-02-11T08:26:52.572Z,1021.41
2023-02-11T08:27:52.584Z,1021.44
2023-02-11T08:28:52.594Z,1021.38
2023-02-11T08:29:52.607Z,1021.32
2023-02-11T08:30:53.025Z,1021.39
2023-02-11T08:31:52.639Z,1021.30
2023-02-11T08:32:52.637Z,1021.29
2023-02-11T08:33:52.649Z,1021.36
2023-02-11T08:34:52.658Z,1021.46
2023-02-11T08:35:52.669Z,1021.34
2023-02-11T08:36:52.684Z,1021.46
2023-02-11T08:37:52.692Z,1021.41
2023-02-11T08:38:52.703Z,1021.43
2023-02-11T08:39:52.720Z,1021.40
2023-02-11T08:40:52.897Z,1021.42
2023-02-11T08:41:52.745Z,1021.43
2023-02-11T08:42:52.754Z,1021.46
2023-02-11T08:43:52.761Z,1021.40
2023-02-11T08:44:52.770Z,1021.41
2023-02-11T08:45:53.066Z,1021.39
2023-02-11T08:46:52.792Z,1021.41
2023-02-11T08:47:52.802Z,1021.40
2023-02-11T08:48:52.817Z,1021.43
2023-02-11T08:49:52.824Z,1021.52
2023-02-11T08:50:52.837Z,1021.57
2023-02-11T08:51:52.854Z,1021.48
2023-02-11T08:52:52.857Z,1021.46
2023-02-11T08:53:52.878Z,1021.34
2023-02-11T08:54:52.882Z,1021.27
2023-02-11T08:55:53.080Z,1021.18
2023-02-11T08:56:52.924Z,1021.17
2023-02-11T08:57:52.918Z,1021.12
2023-02-11T08:58:52.941Z,1021.12
2023-02-11T08:59:52.934Z,1021.14
2023-02-11T09:00:53.380Z,1021.04
2023-02-11T09:01:53.013Z,1021.12
2023-02-11T09:02:52.984Z,1021.08
2023-02-11T09:03:52.981Z,1021.10
2023-02-11T09:04:52.994Z,1021.08
2023-02-11T09:05:53.007Z,1021.10
2023-02-11T09:06:53.024Z,1021.08
2023-02-11T09:07:53.024Z,1021.08
2023-02-11T09:08:53.034Z,1021.12
2023-02-11T09:09:53.066Z,1021.07
2023-02-11T09:10:53.293Z,1021.06
2023-02-11T09:11:53.071Z,1021.12
2023-02-11T09:12:53.081Z,1021.13
2023-02-11T09:13:54.541Z,1021.17
2023-02-11T09:14:53.106Z,1021.19
2023-02-11T09:15:53.116Z,1021.15
2023-02-11T09:16:53.186Z,1021.18
2023-02-11T09:17:53.170Z,1021.23
2023-02-11T09:18:53.150Z,1021.15
2023-02-11T09:19:53.157Z,1021.32
2023-02-11T09:20:53.404Z,1021.29
2023-02-11T09:21:53.185Z,1021.28
2023-02-11T09:22:53.193Z,1021.30
2023-02-11T09:23:53.210Z,1021.31
2023-02-11T09:24:53.216Z,1021.34
2023-02-11T09:25:53.336Z,1021.25
2023-02-11T09:26:53.239Z,1021.34
2023-02-11T09:27:53.250Z,1021.32
2023-02-11T09:28:53.260Z,1021.37
2023-02-11T09:29:53.284Z,1021.39
2023-02-11T09:30:53.564Z,1021.46
2023-02-11T09:31:53.424Z,1021.51
2023-02-11T09:32:53.308Z,1021.43
2023-02-11T09:33:53.318Z,1021.38
2023-02-11T09:34:53.333Z,1021.35
2023-02-11T09:35:53.340Z,1021.23
2023-02-11T09:36:53.353Z,1021.27
2023-02-11T09:37:53.364Z,1021.30
2023-02-11T09:38:53.389Z,1021.30
2023-02-11T09:39:53.385Z,1021.30
2023-02-11T09:40:53.413Z,1021.28
2023-02-11T09:41:53.427Z,1021.27
2023-02-11T09:42:53.426Z,1021.27
2023-02-11T09:43:53.498Z,1021.26
2023-02-11T09:44:53.441Z,1021.32
2023-02-11T09:45:53.477Z,1021.39
2023-02-11T09:46:53.471Z,1021.42
2023-02-11T09:47:53.488Z,1021.46
2023-02-11T09:48:53.491Z,1021.43
2023-02-11T09:49:53.500Z,1021.55
2023-02-11T09:50:53.595Z,1021.47
2023-02-11T09:51:53.531Z,1021.58
2023-02-11T09:52:53.534Z,1021.63
2023-02-11T09:53:53.548Z,1021.59
2023-02-11T09:54:53.557Z,1021.55
2023-02-11T09:55:53.570Z,1021.66
2023-02-11T09:56:53.583Z,1021.66
2023-02-11T09:57:53.597Z,1021.59
2023-02-11T09:58:53.610Z,1021.71
2023-02-11T09:59:53.639Z,1021.77
2023-02-11T10:00:53.725Z,1021.72
2023-02-11T10:01:53.719Z,1021.76
2023-02-11T10:02:53.652Z,1021.75
2023-02-11T10:03:53.720Z,1021.80
2023-02-11T10:04:53.674Z,1021.78
2023-02-11T10:05:53.685Z,1021.77
2023-02-11T10:06:53.697Z,1021.82
2023-02-11T10:07:53.714Z,1021.84
2023-02-11T10:08:53.722Z,1021.84
2023-02-11T10:09:53.734Z,1021.82
2023-02-11T10:10:53.984Z,1021.78
2023-02-11T10:11:53.756Z,1021.87
2023-02-11T10:12:53.771Z,1021.75
2023-02-11T10:13:53.779Z,1021.74
2023-02-11T10:14:53.802Z,1021.73
2023-02-11T10:15:53.862Z,1021.79
2023-02-11T10:16:53.814Z,1021.75
2023-02-11T10:17:53.827Z,1021.73
2023-02-11T10:18:53.840Z,1021.82
2023-02-11T10:19:53.856Z,1021.74
2023-02-11T10:20:53.861Z,1021.76
2023-02-11T10:21:53.872Z,1021.73
2023-02-11T10:22:53.888Z,1021.75
2023-02-11T10:23:53.901Z,1021.76
2023-02-11T10:24:53.922Z,1021.74
2023-02-11T10:25:53.920Z,1021.70
2023-02-11T10:26:53.934Z,1021.67
2023-02-11T10:27:53.944Z,1021.74
2023-02-11T10:28:53.959Z,1021.71
2023-02-11T10:29:53.968Z,1021.71
2023-02-11T10:30:54.277Z,1021.80
2023-02-11T10:31:55.944Z,1021.76
2023-02-11T10:32:54.003Z,1021.82
2023-02-11T10:33:54.014Z,1021.76
2023-02-11T10:34:54.027Z,1021.84
2023-02-11T10:35:54.033Z,1021.83
2023-02-11T10:36:54.055Z,1021.87
2023-02-11T10:37:54.067Z,1021.90
2023-02-11T10:38:54.080Z,1021.89
2023-02-11T10:39:54.085Z,1021.88
2023-02-11T10:40:54.094Z,1021.87
2023-02-11T10:41:54.111Z,1021.85
2023-02-11T10:42:55.710Z,1021.85
2023-02-11T10:43:54.159Z,1021.84
2023-02-11T10:44:54.156Z,1021.72
2023-02-11T10:45:54.170Z,1021.78
2023-02-11T10:46:54.164Z,1021.74
2023-02-11T10:47:54.176Z,1021.77
2023-02-11T10:48:54.219Z,1021.71
2023-02-11T10:49:54.201Z,1021.69
2023-02-11T10:50:54.211Z,1021.68
2023-02-11T10:51:54.222Z,1021.65
2023-02-11T10:52:54.239Z,1021.68
2023-02-11T10:53:54.250Z,1021.72
2023-02-11T10:54:54.258Z,1021.71
2023-02-11T10:55:54.292Z,1021.72
2023-02-11T10:56:54.281Z,1021.74
2023-02-11T10:57:54.295Z,1021.73
2023-02-11T10:58:54.307Z,1021.74
2023-02-11T10:59:54.318Z,1021.72
2023-02-11T11:00:54.367Z,1021.73
2023-02-11T11:01:54.427Z,1021.72
2023-02-11T11:02:54.353Z,1021.74
2023-02-11T11:03:54.363Z,1021.65
2023-02-11T11:04:54.412Z,1021.64
2023-02-11T11:05:56.607Z,1021.65
2023-02-11T11:06:54.406Z,1021.65
2023-02-11T11:07:54.412Z,1021.61
2023-02-11T11:08:54.423Z,1021.53
2023-02-11T11:09:54.432Z,1021.51
2023-02-11T11:10:54.446Z,1021.53
2023-02-11T11:11:54.460Z,1021.53
2023-02-11T11:12:54.466Z,1021.51
2023-02-11T11:13:54.477Z,1021.49
2023-02-11T11:14:54.491Z,1021.50
2023-02-11T11:15:54.528Z,1021.57
2023-02-11T11:16:54.556Z,1021.59
2023-02-11T11:18:01.862Z,1021.57
2023-02-11T11:18:54.536Z,1021.62
2023-02-11T11:19:54.553Z,1021.61
2023-02-11T11:20:54.565Z,1021.60
2023-02-11T11:21:54.579Z,1021.60
2023-02-11T11:22:54.587Z,1021.57
2023-02-11T11:23:54.601Z,1021.64
2023-02-11T11:24:54.625Z,1021.63
2023-02-11T11:25:54.622Z,1021.58
2023-02-11T11:26:54.633Z,1021.54
2023-02-11T11:27:54.645Z,1021.54
2023-02-11T11:28:54.666Z,1021.46
2023-02-11T11:29:54.668Z,1021.43
2023-02-11T11:30:54.928Z,1021.41
2023-02-11T11:31:54.757Z,1021.45
2023-02-11T11:32:54.701Z,1021.43
2023-02-11T11:33:54.723Z,1021.46
2023-02-11T11:34:54.726Z,1021.44
2023-02-11T11:35:54.733Z,1021.44
2023-02-11T11:36:54.746Z,1021.42
2023-02-11T11:37:54.753Z,1021.51
2023-02-11T11:38:54.769Z,1021.52
2023-02-11T11:39:54.778Z,1021.55
2023-02-11T11:40:54.788Z,1021.56
2023-02-11T11:41:54.808Z,1021.59
2023-02-11T11:42:54.812Z,1021.57
2023-02-11T11:43:54.821Z,1021.63
2023-02-11T11:44:54.832Z,1021.62
2023-02-11T11:45:54.856Z,1021.62
2023-02-11T11:46:54.924Z,1021.63
2023-02-11T11:47:54.867Z,1021.57
2023-02-11T11:48:54.878Z,1021.48
2023-02-11T11:49:54.888Z,1021.50
2023-02-11T11:50:54.927Z,1021.47
2023-02-11T11:51:54.912Z,1021.50
2023-02-11T11:52:54.926Z,1021.52
2023-02-11T11:53:54.937Z,1021.54
2023-02-11T11:54:54.948Z,1021.64
2023-02-11T11:55:55.903Z,1021.64
2023-02-11T11:56:54.971Z,1021.57
2023-02-11T11:57:54.989Z,1021.67
2023-02-11T11:58:54.993Z,1021.65
2023-02-11T11:59:55.004Z,1021.62
2023-02-11T12:00:55.027Z,1021.62
2023-02-11T12:01:55.072Z,1021.55
2023-02-11T12:02:55.066Z,1021.49
2023-02-11T12:03:55.048Z,1021.57
2023-02-11T12:04:55.062Z,1021.54
2023-02-11T12:05:55.074Z,1021.57